createdAt,value
2022-12-16T00:00:47.474Z,33.90
2022-12-16T00:03:15.129Z,32.30
2022-12-16T00:05:44.498Z,33.07
2022-12-16T00:08:12.236Z,32.53
2022-12-16T00:10:55.157Z,33.97
2022-12-16T00:13:22.772Z,32.40
2022-12-16T00:15:50.372Z,32.50
2022-12-16T00:18:20.031Z,33.83
2022-12-16T00:20:49.325Z,32.77
2022-12-16T00:23:20.220Z,33.57
2022-12-16T00:25:48.645Z,31.53
2022-12-16T00:28:17.385Z,30.73
2022-12-16T00:30:47.926Z,31.47
2022-12-16T00:33:15.518Z,30.87
2022-12-16T00:35:45.985Z,29.90
2022-12-16T00:38:14.820Z,28.90
2022-12-16T00:40:43.238Z,29.50
2022-12-16T00:43:11.162Z,29.60
2022-12-16T00:45:39.347Z,29.60
2022-12-16T00:48:08.106Z,29.70
2022-12-16T00:50:36.038Z,29.37
2022-12-16T00:53:04.831Z,29.20
2022-12-16T00:55:32.778Z,30.00
2022-12-16T00:58:00.385Z,29.47
2022-12-16T01:00:28.061Z,28.33
2022-12-16T01:02:55.738Z,28.50
2022-12-16T01:05:27.376Z,27.50
2022-12-16T01:07:55.886Z,28.93
2022-12-16T01:10:25.185Z,31.00
2022-12-16T01:12:52.746Z,28.77
2022-12-16T01:15:20.497Z,29.47
2022-12-16T01:17:48.100Z,29.07
2022-12-16T01:20:15.867Z,29.43
2022-12-16T01:22:43.414Z,28.30
2022-12-16T01:25:12.919Z,30.00
2022-12-16T01:27:40.565Z,30.97
2022-12-16T01:30:09.580Z,31.03
2022-12-16T01:32:37.248Z,28.73
2022-12-16T01:35:14.037Z,28.37
2022-12-16T01:37:51.114Z,28.07
2022-12-16T01:40:22.407Z,30.53
2022-12-16T01:42:50.293Z,28.40
2022-12-16T01:45:33.304Z,29.73
2022-12-16T01:48:18.384Z,30.33
2022-12-16T01:50:46.821Z,28.93
2022-12-16T01:53:14.637Z,29.77
2022-12-16T01:55:47.782Z,31.00
2022-12-16T01:58:24.718Z,27.97
2022-12-16T02:00:52.639Z,27.57
2022-12-16T02:03:22.893Z,26.57
2022-12-16T02:05:51.863Z,27.70
2022-12-16T02:08:20.443Z,27.57
2022-12-16T02:11:06.284Z,29.83
2022-12-16T02:14:17.528Z,28.17
2022-12-16T02:17:22.327Z,28.43
2022-12-16T02:20:29.036Z,28.73
2022-12-16T02:23:26.281Z,28.40
2022-12-16T02:25:53.841Z,28.20
2022-12-16T02:28:53.500Z,28.93
2022-12-16T02:31:39.651Z,29.03
2022-12-16T02:34:15.858Z,29.63
2022-12-16T02:36:57.890Z,29.23
2022-12-16T02:39:33.059Z,28.80
2022-12-16T02:42:13.687Z,30.90
2022-12-16T02:45:04.579Z,28.33
2022-12-16T02:47:32.981Z,30.83
2022-12-16T02:50:00.771Z,31.17
2022-12-16T02:52:33.863Z,31.53
2022-12-16T02:55:09.048Z,31.20
2022-12-16T02:57:50.164Z,31.03
2022-12-16T03:00:21.524Z,31.13
2022-12-16T03:03:13.465Z,31.07
2022-12-16T03:05:48.126Z,31.47
2022-12-16T03:08:34.065Z,30.30
2022-12-16T03:11:05.314Z,31.43
2022-12-16T03:13:38.909Z,31.87
2022-12-16T03:16:09.288Z,30.93
2022-12-16T03:18:42.202Z,30.83
2022-12-16T03:21:11.027Z,28.70
2022-12-16T03:24:00.676Z,30.43
2022-12-16T03:26:35.957Z,29.23
2022-12-16T03:29:25.311Z,31.20
2022-12-16T03:31:56.530Z,28.67
2022-12-16T03:34:35.732Z,30.00
2022-12-16T03:37:07.343Z,29.33
2022-12-16T03:39:44.159Z,28.73
2022-12-16T03:42:14.469Z,29.57
2022-12-16T03:44:44.862Z,28.73
2022-12-16T03:47:14.969Z,28.53
2022-12-16T03:49:49.043Z,28.17
2022-12-16T03:52:16.566Z,29.30
2022-12-16T03:54:44.108Z,30.07
2022-12-16T03:57:15.400Z,28.63
2022-12-16T03:59:43.449Z,29.20
2022-12-16T04:02:11.281Z,28.20
2022-12-16T04:04:39.023Z,28.13
2022-12-16T04:07:22.029Z,28.63
2022-12-16T04:09:50.862Z,26.97
2022-12-16T04:12:38.022Z,26.17
2022-12-16T04:15:25.665Z,26.43
2022-12-16T04:18:11.853Z,27.17
2022-12-16T04:21:06.287Z,26.33
2022-12-16T04:23:53.598Z,26.07
2022-12-16T04:26:22.721Z,26.77
2022-12-16T04:28:50.289Z,25.97
2022-12-16T04:31:17.969Z,27.43
2022-12-16T04:34:04.370Z,26.83
2022-12-16T04:36:50.797Z,26.73
2022-12-16T04:39:37.053Z,28.13
2022-12-16T04:42:23.400Z,26.07
2022-12-16T04:45:09.761Z,26.77
2022-12-16T04:47:57.699Z,25.80
2022-12-16T04:50:44.302Z,26.43
2022-12-16T04:53:30.857Z,27.77
2022-12-16T04:56:17.483Z,25.90
2022-12-16T04:59:03.831Z,25.80
2022-12-16T05:01:50.327Z,26.37
2022-12-16T05:04:36.614Z,27.00
2022-12-16T05:07:23.131Z,26.03
2022-12-16T05:10:09.410Z,25.03
2022-12-16T05:12:55.634Z,25.40
2022-12-16T05:15:42.088Z,23.53
2022-12-16T05:18:33.150Z,23.93
2022-12-16T05:21:21.020Z,24.37
2022-12-16T05:24:07.357Z,25.60
2022-12-16T05:26:53.726Z,26.03
2022-12-16T05:29:39.681Z,26.73
2022-12-16T05:32:26.093Z,25.90
2022-12-16T05:35:12.469Z,26.47
2022-12-16T05:37:58.499Z,25.80
2022-12-16T05:40:44.863Z,27.17
2022-12-16T05:43:31.511Z,29.60
2022-12-16T05:46:17.934Z,26.30
2022-12-16T05:49:04.444Z,25.77
2022-12-16T05:51:50.640Z,25.97
2022-12-16T05:54:36.913Z,27.07
2022-12-16T05:57:23.066Z,26.33
2022-12-16T06:00:09.412Z,27.43
2022-12-16T06:02:55.879Z,25.77
2022-12-16T06:05:42.315Z,27.20
2022-12-16T06:08:28.528Z,25.17
2022-12-16T06:11:14.936Z,27.50
2022-12-16T06:14:01.337Z,25.33
2022-12-16T06:16:47.666Z,26.90
2022-12-16T06:19:34.118Z,25.97
2022-12-16T06:22:20.414Z,27.23
2022-12-16T06:25:06.785Z,28.80
2022-12-16T06:27:53.152Z,27.33
2022-12-16T06:30:39.520Z,26.43
2022-12-16T06:33:25.971Z,27.13
2022-12-16T06:36:12.370Z,26.83
2022-12-16T06:38:58.691Z,25.97
2022-12-16T06:41:58.723Z,27.20
2022-12-16T06:44:45.190Z,24.77
2022-12-16T06:47:31.489Z,26.53
2022-12-16T06:50:17.810Z,26.93
2022-12-16T06:53:04.540Z,27.13
2022-12-16T06:55:50.989Z,27.77
2022-12-16T06:58:37.077Z,28.47
2022-12-16T07:01:23.691Z,29.57
2022-12-16T07:04:10.099Z,30.03
2022-12-16T07:06:56.364Z,29.27
2022-12-16T07:09:42.751Z,28.03
2022-12-16T07:12:29.179Z,31.30
2022-12-16T07:15:15.682Z,31.57
2022-12-16T07:18:04.184Z,30.47
2022-12-16T07:20:50.610Z,29.73
2022-12-16T07:23:37.201Z,30.23
2022-12-16T07:26:24.748Z,28.63
2022-12-16T07:29:10.986Z,30.70
2022-12-16T07:31:57.499Z,30.17
2022-12-16T07:34:49.858Z,29.57
2022-12-16T07:37:36.613Z,31.03
2022-12-16T07:40:23.548Z,30.87
2022-12-16T07:43:09.853Z,29.40
2022-12-16T07:45:56.213Z,28.90
2022-12-16T07:48:42.296Z,30.10
2022-12-16T07:51:28.842Z,28.37
2022-12-16T07:54:15.133Z,30.03
2022-12-16T07:57:01.222Z,29.97
2022-12-16T07:59:47.555Z,32.20
2022-12-16T08:02:33.866Z,29.83
2022-12-16T08:05:20.139Z,29.57
2022-12-16T08:08:06.377Z,29.37
2022-12-16T08:10:52.851Z,28.20
2022-12-16T08:13:41.440Z,27.07
2022-12-16T08:16:27.749Z,27.03
2022-12-16T08:19:14.110Z,26.67
2022-12-16T08:22:00.331Z,28.20
2022-12-16T08:24:55.955Z,27.20
2022-12-16T08:27:42.579Z,27.37
2022-12-16T08:30:29.370Z,27.30
2022-12-16T08:33:19.625Z,28.27
2022-12-16T08:36:06.377Z,27.97
2022-12-16T08:38:53.964Z,27.27
2022-12-16T08:41:42.083Z,27.90
2022-12-16T08:44:28.258Z,26.97
2022-12-16T08:47:14.273Z,26.87
2022-12-16T08:50:02.234Z,26.70
2022-12-16T08:52:49.609Z,27.73
2022-12-16T08:55:40.306Z,25.80
2022-12-16T08:58:26.776Z,26.60
2022-12-16T09:01:13.073Z,25.97
2022-12-16T09:03:59.438Z,26.20
2022-12-16T09:06:45.921Z,26.53
2022-12-16T09:09:32.448Z,29.13
2022-12-16T09:12:18.814Z,27.50
2022-12-16T09:15:05.202Z,27.10
2022-12-16T09:17:51.549Z,27.40
2022-12-16T09:20:38.983Z,24.87
2022-12-16T09:23:25.365Z,26.17
2022-12-16T09:26:11.993Z,27.63
2022-12-16T09:28:58.307Z,27.37
2022-12-16T09:31:44.494Z,26.23
2022-12-16T09:34:31.005Z,27.70
2022-12-16T09:37:17.143Z,26.07
2022-12-16T09:40:03.527Z,26.90
2022-12-16T09:43:15.916Z,26.40
2022-12-16T09:46:53.958Z,26.37
2022-12-16T09:50:03.197Z,24.60
2022-12-16T09:52:54.407Z,26.00
2022-12-16T09:55:48.318Z,26.20
2022-12-16T09:58:36.650Z,25.53
2022-12-16T10:01:23.216Z,24.50
2022-12-16T10:04:09.856Z,24.33
2022-12-16T10:07:05.973Z,24.40
2022-12-16T10:10:01.572Z,24.87
2022-12-16T10:13:05.748Z,24.57
2022-12-16T10:16:03.862Z,25.83
2022-12-16T10:19:08.209Z,25.40
2022-12-16T10:22:27.832Z,23.90
2022-12-16T10:25:27.310Z,23.40
2022-12-16T10:28:23.368Z,24.37
2022-12-16T10:31:10.808Z,20.53
2022-12-16T10:33:57.100Z,20.93
2022-12-16T10:36:44.084Z,19.50
2022-12-16T10:39:52.876Z,18.43
2022-12-16T10:42:52.012Z,17.20
2022-12-16T10:45:46.631Z,17.17
2022-12-16T10:48:36.035Z,17.87
2022-12-16T10:51:33.915Z,15.77
2022-12-16T10:54:53.028Z,15.93
2022-12-16T10:57:47.370Z,15.50
2022-12-16T11:00:36.530Z,16.80
2022-12-16T11:03:43.641Z,15.70
2022-12-16T11:06:35.497Z,15.07
2022-12-16T11:09:39.661Z,14.93
2022-12-16T11:12:45.974Z,16.73
2022-12-16T11:15:43.195Z,14.60
2022-12-16T11:18:39.845Z,15.47
2022-12-16T11:21:35.085Z,14.53
2022-12-16T11:24:35.404Z,13.87
2022-12-16T11:27:39.679Z,14.20
2022-12-16T11:30:30.787Z,13.90
2022-12-16T11:33:19.188Z,14.73
2022-12-16T11:36:11.174Z,13.90
2022-12-16T11:39:05.871Z,14.13
2022-12-16T11:41:57.884Z,14.53
2022-12-16T11:44:52.183Z,13.13
2022-12-16T11:47:49.738Z,14.13
2022-12-16T11:50:41.369Z,14.10
2022-12-16T11:53:43.238Z,13.33
2022-12-16T11:56:36.238Z,14.57
2022-12-16T11:59:30.819Z,13.07
2022-12-16T12:02:19.792Z,13.13
2022-12-16T12:05:08.954Z,12.23
2022-12-16T12:08:20.384Z,13.70
2022-12-16T12:11:24.298Z,13.33
2022-12-16T12:14:16.630Z,14.03
2022-12-16T12:17:31.666Z,13.50
2022-12-16T12:20:43.943Z,13.43
2022-12-16T12:23:33.728Z,12.10
2022-12-16T12:26:38.531Z,13.20
2022-12-16T12:29:52.274Z,11.63
2022-12-16T12:32:56.452Z,12.43
2022-12-16T12:36:11.922Z,11.97
2022-12-16T12:39:30.751Z,12.10
2022-12-16T12:42:40.369Z,13.50
2022-12-16T12:45:59.498Z,11.90
2022-12-16T12:48:57.590Z,12.07
2022-12-16T12:52:16.016Z,12.03
2022-12-16T12:55:28.150Z,13.80
2022-12-16T12:58:16.410Z,12.33
2022-12-16T13:01:07.158Z,13.80
2022-12-16T13:04:12.266Z,12.37
2022-12-16T13:06:59.166Z,12.57
2022-12-16T13:09:50.120Z,11.67
2022-12-16T13:12:42.204Z,11.80
2022-12-16T13:15:51.522Z,11.00
2022-12-16T13:18:43.731Z,11.17
2022-12-16T13:21:54.810Z,12.70
2022-12-16T13:24:45.823Z,13.93
2022-12-16T13:27:38.329Z,12.70
2022-12-16T13:30:32.324Z,12.03
2022-12-16T13:33:51.175Z,12.23
2022-12-16T13:36:38.297Z,12.47
2022-12-16T13:39:41.318Z,11.33
2022-12-16T13:42:50.065Z,10.13
2022-12-16T13:45:50.573Z,10.30
2022-12-16T13:48:48.480Z,9.87
2022-12-16T13:51:56.467Z,10.37
2022-12-16T13:54:59.225Z,9.50
2022-12-16T13:57:48.915Z,10.10
2022-12-16T14:00:41.497Z,10.73
2022-12-16T14:03:43.766Z,10.97
2022-12-16T14:06:37.557Z,11.63
2022-12-16T14:09:23.897Z,11.63
2022-12-16T14:12:42.560Z,12.23
2022-12-16T14:15:47.079Z,13.80
2022-12-16T14:18:49.775Z,14.23
2022-12-16T14:21:42.820Z,14.53
2022-12-16T14:24:46.729Z,14.33
2022-12-16T14:27:40.590Z,14.35
2022-12-16T14:30:39.381Z,14.87
2022-12-16T14:33:36.053Z,14.70
2022-12-16T14:36:22.890Z,15.13
2022-12-16T14:39:09.835Z,14.03
2022-12-16T14:41:56.108Z,14.77
2022-12-16T14:44:43.791Z,16.00
2022-12-16T14:47:40.467Z,16.40
2022-12-16T14:50:48.512Z,17.47
2022-12-16T14:53:40.470Z,16.83
2022-12-16T14:56:35.532Z,16.97
2022-12-16T14:59:36.266Z,17.27
2022-12-16T15:02:45.528Z,17.03
2022-12-16T15:05:35.674Z,16.77
2022-12-16T15:08:21.962Z,17.27
2022-12-16T15:11:08.052Z,18.60
2022-12-16T15:13:58.983Z,18.93
2022-12-16T15:16:55.312Z,17.30
2022-12-16T15:19:45.390Z,17.07
2022-12-16T15:22:44.971Z,18.03
2022-12-16T15:25:38.551Z,17.03
2022-12-16T15:28:44.036Z,16.77
2022-12-16T15:31:42.585Z,19.33
2022-12-16T15:34:45.820Z,18.97
2022-12-16T15:38:03.584Z,18.57
2022-12-16T15:40:53.020Z,20.63
2022-12-16T15:43:46.438Z,18.97
2022-12-16T15:46:47.149Z,20.17
2022-12-16T15:49:51.616Z,19.67
2022-12-16T15:53:01.950Z,20.40
2022-12-16T15:56:04.181Z,18.57
2022-12-16T15:58:55.091Z,20.03
2022-12-16T16:01:44.283Z,20.97
2022-12-16T16:04:48.788Z,21.27
2022-12-16T16:07:41.381Z,22.03
2022-12-16T16:10:38.877Z,20.70
2022-12-16T16:13:25.906Z,24.20
2022-12-16T16:16:14.812Z,21.37
2022-12-16T16:19:01.754Z,22.20
2022-12-16T16:21:48.842Z,22.67
2022-12-16T16:24:35.214Z,23.77
2022-12-16T16:27:22.607Z,25.33
2022-12-16T16:30:08.918Z,24.03
2022-12-16T16:32:55.220Z,23.27
2022-12-16T16:35:41.590Z,23.30
2022-12-16T16:38:30.017Z,23.80
2022-12-16T16:41:16.917Z,25.13
2022-12-16T16:44:03.147Z,24.90
2022-12-16T16:46:55.655Z,24.50
2022-12-16T16:49:42.908Z,26.73
2022-12-16T16:52:34.894Z,25.30
2022-12-16T16:55:21.356Z,26.73
2022-12-16T16:58:07.283Z,27.47
2022-12-16T17:00:53.747Z,26.67
2022-12-16T17:03:41.336Z,25.37
2022-12-16T17:06:28.015Z,26.80
2022-12-16T17:09:14.415Z,25.30
2022-12-16T17:12:00.971Z,27.47
2022-12-16T17:14:47.191Z,27.73
2022-12-16T17:17:33.515Z,27.10
2022-12-16T17:20:19.906Z,26.97
2022-12-16T17:23:06.226Z,28.03
2022-12-16T17:25:52.630Z,30.70
2022-12-16T17:28:39.231Z,31.10
2022-12-16T17:31:26.827Z,29.43
2022-12-16T17:34:13.316Z,31.27
2022-12-16T17:36:59.757Z,29.83
2022-12-16T17:39:45.972Z,29.60
2022-12-16T17:42:32.468Z,29.67
2022-12-16T17:45:19.408Z,27.57
2022-12-16T17:48:05.564Z,28.43
2022-12-16T17:50:51.692Z,29.87
2022-12-16T17:53:37.922Z,29.63
2022-12-16T17:56:24.213Z,28.40
2022-12-16T17:59:11.338Z,29.20
2022-12-16T18:01:57.837Z,29.03
2022-12-16T18:04:43.934Z,29.60
2022-12-16T18:07:30.049Z,30.00
2022-12-16T18:10:16.241Z,29.13
2022-12-16T18:13:02.624Z,29.47
2022-12-16T18:15:50.496Z,28.77
2022-12-16T18:18:39.335Z,28.63
2022-12-16T18:21:30.955Z,29.23
2022-12-16T18:24:17.301Z,28.73
2022-12-16T18:27:03.629Z,29.50
2022-12-16T18:33:14.496Z,30.13
2022-12-16T18:36:00.619Z,29.40
2022-12-16T18:38:47.092Z,29.90
2022-12-16T18:41:36.290Z,28.53
2022-12-16T18:44:25.108Z,29.30
2022-12-16T18:47:11.513Z,28.63
2022-12-16T18:49:57.790Z,30.57
2022-12-16T18:52:44.072Z,29.20
2022-12-16T18:55:30.516Z,28.47
2022-12-16T18:58:42.697Z,28.70
2022-12-16T19:01:25.872Z,28.63
2022-12-16T19:04:13.494Z,29.67
2022-12-16T19:07:00.338Z,29.90
2022-12-16T19:09:55.665Z,29.90
2022-12-16T19:13:00.042Z,29.43
2022-12-16T19:15:46.385Z,29.30
2022-12-16T19:19:01.490Z,28.73
2022-12-16T19:21:51.974Z,29.50
2022-12-16T19:24:42.850Z,30.73
2022-12-16T19:27:29.234Z,29.77
2022-12-16T19:30:15.598Z,30.47
2022-12-16T19:33:01.794Z,30.13
2022-12-16T19:35:49.487Z,29.90
2022-12-16T19:38:35.568Z,31.77
2022-12-16T19:41:21.660Z,32.87
2022-12-16T19:44:07.824Z,31.30
2022-12-16T19:46:56.325Z,30.87
2022-12-16T19:49:44.611Z,29.80
2022-12-16T19:52:31.315Z,30.47
2022-12-16T19:55:17.985Z,30.90
2022-12-16T19:58:04.162Z,29.40
2022-12-16T20:00:50.482Z,29.87
2022-12-16T20:03:38.066Z,28.70
2022-12-16T20:06:27.974Z,29.13
2022-12-16T20:09:15.387Z,28.70
2022-12-16T20:12:01.576Z,29.10
2022-12-16T20:14:48.083Z,28.10
2022-12-16T20:17:34.242Z,28.27
2022-12-16T20:20:20.638Z,30.23
2022-12-16T20:23:06.904Z,29.80
2022-12-16T20:25:56.369Z,29.30
2022-12-16T20:28:43.044Z,29.50
2022-12-16T20:31:29.197Z,30.43
2022-12-16T20:34:15.955Z,29.93
2022-12-16T20:37:02.250Z,30.63
2022-12-16T20:39:56.416Z,31.83
2022-12-16T20:42:44.648Z,33.10
2022-12-16T20:45:32.519Z,34.70
2022-12-16T20:48:18.829Z,32.70
2022-12-16T20:54:25.232Z,31.37
2022-12-16T20:57:12.840Z,32.77
2022-12-16T20:59:59.435Z,31.27
2022-12-16T21:02:46.012Z,31.23
2022-12-16T21:05:32.492Z,33.33
2022-12-16T21:08:18.865Z,34.30
2022-12-16T21:11:05.186Z,33.83
2022-12-16T21:13:51.497Z,33.40
2022-12-16T21:16:38.301Z,34.40
2022-12-16T21:19:29.401Z,35.67
2022-12-16T21:22:19.378Z,32.43
2022-12-16T21:25:05.709Z,35.73
2022-12-16T21:27:51.777Z,36.27
2022-12-16T21:30:38.831Z,38.00
2022-12-16T21:33:25.079Z,37.27
2022-12-16T21:36:12.396Z,39.87
2022-12-16T21:38:58.842Z,40.10
2022-12-16T21:41:45.269Z,39.03
2022-12-16T21:44:31.589Z,40.10
2022-12-16T21:47:18.154Z,42.23
2022-12-16T21:50:04.524Z,44.77
2022-12-16T21:52:50.645Z,43.97
2022-12-16T21:55:38.229Z,43.87
2022-12-16T21:58:29.768Z,41.53
2022-12-16T22:01:17.274Z,44.13
2022-12-16T22:04:03.408Z,43.33
2022-12-16T22:06:50.319Z,41.17
2022-12-16T22:09:36.696Z,43.00
2022-12-16T22:12:23.199Z,44.07
2022-12-16T22:15:09.440Z,43.53
2022-12-16T22:17:58.600Z,43.47
2022-12-16T22:21:01.968Z,43.90
2022-12-16T22:23:48.524Z,42.40
2022-12-16T22:26:35.082Z,42.33
2022-12-16T22:29:21.425Z,42.67
2022-12-16T22:32:07.839Z,43.20
2022-12-16T22:34:54.092Z,42.00
2022-12-16T22:36:21.548Z,32.30
2022-12-16T22:37:41.938Z,42.30
2022-12-16T22:40:28.893Z,40.77
2022-12-16T22:43:15.441Z,41.13
2022-12-16T22:46:01.840Z,42.00
2022-12-16T22:48:48.347Z,40.13
2022-12-16T22:51:35.436Z,41.23
2022-12-16T22:54:21.587Z,41.87
2022-12-16T22:57:07.987Z,41.07
2022-12-16T22:59:54.309Z,42.50
2022-12-16T23:02:42.811Z,41.30
2022-12-16T23:05:29.151Z,42.93
2022-12-16T23:08:15.570Z,43.50
2022-12-16T23:11:01.831Z,43.93
2022-12-16T23:13:48.265Z,41.73
2022-12-16T23:16:37.339Z,43.57
2022-12-16T23:19:23.597Z,42.73
2022-12-16T23:22:10.026Z,41.40
2022-12-16T23:24:56.161Z,42.90
2022-12-16T23:27:43.274Z,39.10
2022-12-16T23:30:29.790Z,40.60
2022-12-16T23:33:19.774Z,40.57
2022-12-16T23:36:06.619Z,40.87
2022-12-16T23:38:53.313Z,39.10
2022-12-16T23:41:39.902Z,39.83
2022-12-16T23:44:26.247Z,39.37
2022-12-16T23:47:12.477Z,40.83
2022-12-16T23:49:58.849Z,40.53
2022-12-16T23:52:45.248Z,40.60
2022-12-16T23:55:31.584Z,39.53
2022-12-16T23:58:19.966Z,41.33
